Terminal Aerodrome Forecast
Issued by NWS

Current Version | Previous Version | Text Only | Print | Product List | Glossary Off
Versions: 1 2 3 4 5 6 7 8 9 10 11 12 13 14 15 16 17 18 19 20 21 22 23

000
FTUS41 KRLX 011300 AAA
TAFCKB
TAF AMD
KCKB 011303Z 0113/0212 00000KT 4SM -RA BR OVC008
     FM011400 22004KT 6SM BR BKN012
     FM011600 23007KT P6SM BKN030
     FM011800 24008KT P6SM BKN035
     FM012000 23007KT P6SM SCT040
     FM020100 21002KT P6SM SCT035
     FM020600 00000KT 5SM BR BKN025=

USA.gov is the U.S. government's official web portal to all federal, state and local government web resources and services.